sensor_id;sensor_type;location;lat;lon;timestamp;temperature;humidity
33574;DHT22;20085;50.832;4.392;2022-11-20T00:00:13;7.20;99.90
33574;DHT22;20085;50.832;4.392;2022-11-20T00:02:38;7.20;99.90
33574;DHT22;20085;50.832;4.392;2022-11-20T00:05:06;7.20;99.90
33574;DHT22;20085;50.832;4.392;2022-11-20T00:07:32;7.30;99.90
33574;DHT22;20085;50.832;4.392;2022-11-20T00:09:57;7.30;99.90
33574;DHT22;20085;50.832;4.392;2022-11-20T00:12:35;7.20;99.90
33574;DHT22;20085;50.832;4.392;2022-11-20T00:15:03;7.30;99.90
33574;DHT22;20085;50.832;4.392;2022-11-20T00:17:29;7.30;99.90
33574;DHT22;20085;50.832;4.392;2022-11-20T00:19:55;7.30;99.90
33574;DHT22;20085;50.832;4.392;2022-11-20T00:22:21;7.20;99.90
33574;DHT22;20085;50.832;4.392;2022-11-20T00:24:48;7.20;99.90
33574;DHT22;20085;50.832;4.392;2022-11-20T00:27:14;7.20;99.90
33574;DHT22;20085;50.832;4.392;2022-11-20T00:29:40;7.20;99.90
33574;DHT22;20085;50.832;4.392;2022-11-20T00:32:06;7.10;99.90
33574;DHT22;20085;50.832;4.392;2022-11-20T00:34:31;7.10;99.90
33574;DHT22;20085;50.832;4.392;2022-11-20T00:36:57;7.10;99.90
33574;DHT22;20085;50.832;4.392;2022-11-20T00:39:22;7.10;99.90
33574;DHT22;20085;50.832;4.392;2022-11-20T00:41:48;7.10;99.90
33574;DHT22;20085;50.832;4.392;2022-11-20T00:44:13;7.20;99.90
33574;DHT22;20085;50.832;4.392;2022-11-20T00:46:39;7.10;99.90
33574;DHT22;20085;50.832;4.392;2022-11-20T00:49:04;7.20;99.90
33574;DHT22;20085;50.832;4.392;2022-11-20T00:51:29;7.10;99.90
33574;DHT22;20085;50.832;4.392;2022-11-20T00:53:56;7.00;99.90
33574;DHT22;20085;50.832;4.392;2022-11-20T00:56:21;7.00;99.90
33574;DHT22;20085;50.832;4.392;2022-11-20T00:58:47;7.10;99.90
33574;DHT22;20085;50.832;4.392;2022-11-20T01:03:40;7.20;99.90
33574;DHT22;20085;50.832;4.392;2022-11-20T01:06:07;7.10;99.90
33574;DHT22;20085;50.832;4.392;2022-11-20T01:08:33;7.20;99.90
33574;DHT22;20085;50.832;4.392;2022-11-20T01:11:02;7.20;99.90
33574;DHT22;20085;50.832;4.392;2022-11-20T01:13:28;7.10;99.90
33574;DHT22;20085;50.832;4.392;2022-11-20T01:16:13;7.10;99.90
33574;DHT22;20085;50.832;4.392;2022-11-20T01:18:40;7.10;99.90
33574;DHT22;20085;50.832;4.392;2022-11-20T01:21:07;7.10;99.90
33574;DHT22;20085;50.832;4.392;2022-11-20T01:23:33;7.20;99.90
33574;DHT22;20085;50.832;4.392;2022-11-20T01:25:59;7.20;99.90
33574;DHT22;20085;50.832;4.392;2022-11-20T01:28:25;7.10;99.90
33574;DHT22;20085;50.832;4.392;2022-11-20T01:30:51;7.20;99.90
33574;DHT22;20085;50.832;4.392;2022-11-20T01:33:16;7.10;99.90
33574;DHT22;20085;50.832;4.392;2022-11-20T01:35:42;7.20;99.90
33574;DHT22;20085;50.832;4.392;2022-11-20T01:38:07;7.20;99.90
33574;DHT22;20085;50.832;4.392;2022-11-20T01:40:33;7.20;99.90
33574;DHT22;20085;50.832;4.392;2022-11-20T01:43:06;7.20;99.90
33574;DHT22;20085;50.832;4.392;2022-11-20T01:45:52;7.30;99.90
33574;DHT22;20085;50.832;4.392;2022-11-20T01:48:21;7.30;99.90
33574;DHT22;20085;50.832;4.392;2022-11-20T01:50:47;7.30;99.90
33574;DHT22;20085;50.832;4.392;2022-11-20T01:53:13;7.30;99.90
33574;DHT22;20085;50.832;4.392;2022-11-20T01:55:41;7.30;99.90
33574;DHT22;20085;50.832;4.392;2022-11-20T01:58:08;7.20;99.90
33574;DHT22;20085;50.832;4.392;2022-11-20T02:00:34;7.20;99.90
33574;DHT22;20085;50.832;4.392;2022-11-20T02:03:01;7.30;99.90
33574;DHT22;20085;50.832;4.392;2022-11-20T02:05:42;7.30;99.90
33574;DHT22;20085;50.832;4.392;2022-11-20T02:08:09;7.30;99.90
33574;DHT22;20085;50.832;4.392;2022-11-20T02:10:34;7.30;99.90
33574;DHT22;20085;50.832;4.392;2022-11-20T02:13:00;7.30;99.90
33574;DHT22;20085;50.832;4.392;2022-11-20T02:15:44;7.30;99.90
33574;DHT22;20085;50.832;4.392;2022-11-20T02:18:10;7.40;99.90
33574;DHT22;20085;50.832;4.392;2022-11-20T02:20:37;7.40;99.90
33574;DHT22;20085;50.832;4.392;2022-11-20T02:25:28;7.40;99.90
33574;DHT22;20085;50.832;4.392;2022-11-20T02:27:56;7.30;99.90
33574;DHT22;20085;50.832;4.392;2022-11-20T02:30:21;7.20;99.90
33574;DHT22;20085;50.832;4.392;2022-11-20T02:32:47;7.20;99.90
33574;DHT22;20085;50.832;4.392;2022-11-20T02:37:44;7.30;99.90
33574;DHT22;20085;50.832;4.392;2022-11-20T02:40:10;7.20;99.90
33574;DHT22;20085;50.832;4.392;2022-11-20T02:42:36;7.30;99.90
33574;DHT22;20085;50.832;4.392;2022-11-20T02:45:01;7.30;99.90
33574;DHT22;20085;50.832;4.392;2022-11-20T02:47:27;7.30;99.90
33574;DHT22;20085;50.832;4.392;2022-11-20T02:49:52;7.40;99.90
33574;DHT22;20085;50.832;4.392;2022-11-20T02:52:18;7.30;99.90
33574;DHT22;20085;50.832;4.392;2022-11-20T02:54:43;7.30;99.90
33574;DHT22;20085;50.832;4.392;2022-11-20T02:57:09;7.30;99.90
33574;DHT22;20085;50.832;4.392;2022-11-20T02:59:34;7.20;99.90
33574;DHT22;20085;50.832;4.392;2022-11-20T03:02:00;7.20;99.90
33574;DHT22;20085;50.832;4.392;2022-11-20T03:04:25;7.20;99.90
33574;DHT22;20085;50.832;4.392;2022-11-20T03:06:51;7.20;99.90
33574;DHT22;20085;50.832;4.392;2022-11-20T03:09:16;7.10;99.90
33574;DHT22;20085;50.832;4.392;2022-11-20T03:11:42;7.20;99.90
33574;DHT22;20085;50.832;4.392;2022-11-20T03:14:07;7.40;99.90
33574;DHT22;20085;50.832;4.392;2022-11-20T03:16:33;7.40;99.90
33574;DHT22;20085;50.832;4.392;2022-11-20T03:18:58;7.40;99.90
33574;DHT22;20085;50.832;4.392;2022-11-20T03:21:24;7.40;99.90
33574;DHT22;20085;50.832;4.392;2022-11-20T03:23:49;7.30;99.90
33574;DHT22;20085;50.832;4.392;2022-11-20T03:26:19;7.10;99.90
33574;DHT22;20085;50.832;4.392;2022-11-20T03:28:48;7.10;99.90
33574;DHT22;20085;50.832;4.392;2022-11-20T03:31:15;7.20;99.90
33574;DHT22;20085;50.832;4.392;2022-11-20T03:33:41;7.30;99.90
33574;DHT22;20085;50.832;4.392;2022-11-20T03:36:08;7.30;99.90
33574;DHT22;20085;50.832;4.392;2022-11-20T03:38:34;7.30;99.90
33574;DHT22;20085;50.832;4.392;2022-11-20T03:41:19;7.30;99.90
33574;DHT22;20085;50.832;4.392;2022-11-20T03:44:00;7.30;99.90
33574;DHT22;20085;50.832;4.392;2022-11-20T03:46:26;7.30;99.90
33574;DHT22;20085;50.832;4.392;2022-11-20T03:48:52;7.30;99.90
33574;DHT22;20085;50.832;4.392;2022-11-20T03:51:18;7.30;99.90
33574;DHT22;20085;50.832;4.392;2022-11-20T03:53:45;7.30;99.90
33574;DHT22;20085;50.832;4.392;2022-11-20T03:56:11;7.30;99.90
33574;DHT22;20085;50.832;4.392;2022-11-20T03:58:37;7.40;99.90
33574;DHT22;20085;50.832;4.392;2022-11-20T04:01:07;7.30;99.90
33574;DHT22;20085;50.832;4.392;2022-11-20T04:03:33;7.40;99.90
33574;DHT22;20085;50.832;4.392;2022-11-20T04:06:05;7.40;99.90
33574;DHT22;20085;50.832;4.392;2022-11-20T04:08:31;7.40;99.90
33574;DHT22;20085;50.832;4.392;2022-11-20T04:11:07;7.50;99.90
33574;DHT22;20085;50.832;4.392;2022-11-20T04:13:32;7.50;99.90
33574;DHT22;20085;50.832;4.392;2022-11-20T04:15:58;7.40;99.90
33574;DHT22;20085;50.832;4.392;2022-11-20T04:18:23;7.40;99.90
33574;DHT22;20085;50.832;4.392;2022-11-20T04:20:49;7.40;99.90
33574;DHT22;20085;50.832;4.392;2022-11-20T04:23:14;7.40;99.90
33574;DHT22;20085;50.832;4.392;2022-11-20T04:25:39;7.40;99.90
33574;DHT22;20085;50.832;4.392;2022-11-20T04:28:05;7.50;99.90
33574;DHT22;20085;50.832;4.392;2022-11-20T04:30:30;7.40;99.90
33574;DHT22;20085;50.832;4.392;2022-11-20T04:32:56;7.50;99.90
33574;DHT22;20085;50.832;4.392;2022-11-20T04:35:21;7.50;99.90
33574;DHT22;20085;50.832;4.392;2022-11-20T04:37:47;7.60;99.90
33574;DHT22;20085;50.832;4.392;2022-11-20T04:40:12;7.70;99.90
33574;DHT22;20085;50.832;4.392;2022-11-20T04:42:39;7.60;99.90
33574;DHT22;20085;50.832;4.392;2022-11-20T04:45:05;7.60;99.90
33574;DHT22;20085;50.832;4.392;2022-11-20T04:47:31;7.50;99.90
33574;DHT22;20085;50.832;4.392;2022-11-20T04:49:56;7.60;99.90
33574;DHT22;20085;50.832;4.392;2022-11-20T04:52:22;7.60;99.90
33574;DHT22;20085;50.832;4.392;2022-11-20T04:54:47;7.60;99.90
33574;DHT22;20085;50.832;4.392;2022-11-20T04:57:13;7.60;99.90
33574;DHT22;20085;50.832;4.392;2022-11-20T04:59:38;7.70;99.90
33574;DHT22;20085;50.832;4.392;2022-11-20T05:02:04;7.70;99.90
33574;DHT22;20085;50.832;4.392;2022-11-20T05:04:29;7.80;99.90
33574;DHT22;20085;50.832;4.392;2022-11-20T05:06:55;7.70;99.90
33574;DHT22;20085;50.832;4.392;2022-11-20T05:09:20;7.80;99.90
33574;DHT22;20085;50.832;4.392;2022-11-20T05:11:45;7.70;99.90
33574;DHT22;20085;50.832;4.392;2022-11-20T05:14:11;7.70;99.90
33574;DHT22;20085;50.832;4.392;2022-11-20T05:16:36;7.70;99.90
33574;DHT22;20085;50.832;4.392;2022-11-20T05:19:02;7.70;99.90
33574;DHT22;20085;50.832;4.392;2022-11-20T05:21:29;7.80;99.90
33574;DHT22;20085;50.832;4.392;2022-11-20T05:23:55;7.70;99.90
33574;DHT22;20085;50.832;4.392;2022-11-20T05:26:21;7.70;99.90
33574;DHT22;20085;50.832;4.392;2022-11-20T05:28:47;7.70;99.90
33574;DHT22;20085;50.832;4.392;2022-11-20T05:31:16;7.80;99.90
33574;DHT22;20085;50.832;4.392;2022-11-20T05:33:43;7.80;99.90
33574;DHT22;20085;50.832;4.392;2022-11-20T05:36:09;7.80;99.90
33574;DHT22;20085;50.832;4.392;2022-11-20T05:38:35;7.80;99.90
33574;DHT22;20085;50.832;4.392;2022-11-20T05:41:06;7.80;99.90
33574;DHT22;20085;50.832;4.392;2022-11-20T05:43:32;7.80;99.90
33574;DHT22;20085;50.832;4.392;2022-11-20T05:45:59;7.80;99.90
33574;DHT22;20085;50.832;4.392;2022-11-20T05:48:24;7.70;99.90
33574;DHT22;20085;50.832;4.392;2022-11-20T05:50:50;7.80;99.90
33574;DHT22;20085;50.832;4.392;2022-11-20T05:53:15;7.80;99.90
33574;DHT22;20085;50.832;4.392;2022-11-20T05:55:41;7.90;99.90
33574;DHT22;20085;50.832;4.392;2022-11-20T05:58:06;7.90;99.90
33574;DHT22;20085;50.832;4.392;2022-11-20T06:00:32;7.90;99.90
33574;DHT22;20085;50.832;4.392;2022-11-20T06:02:57;7.80;99.90
33574;DHT22;20085;50.832;4.392;2022-11-20T06:05:23;7.80;99.90
33574;DHT22;20085;50.832;4.392;2022-11-20T06:07:48;7.90;99.90
33574;DHT22;20085;50.832;4.392;2022-11-20T06:10:13;7.90;99.90
33574;DHT22;20085;50.832;4.392;2022-11-20T06:12:39;7.90;99.90
33574;DHT22;20085;50.832;4.392;2022-11-20T06:15:05;7.80;99.90
33574;DHT22;20085;50.832;4.392;2022-11-20T06:17:30;7.90;99.90
33574;DHT22;20085;50.832;4.392;2022-11-20T06:19:56;7.90;99.90
33574;DHT22;20085;50.832;4.392;2022-11-20T06:22:21;7.90;99.90
33574;DHT22;20085;50.832;4.392;2022-11-20T06:24:47;7.80;99.90
33574;DHT22;20085;50.832;4.392;2022-11-20T06:27:13;7.90;99.90
33574;DHT22;20085;50.832;4.392;2022-11-20T06:29:38;7.90;99.90
33574;DHT22;20085;50.832;4.392;2022-11-20T06:32:04;7.90;99.90
33574;DHT22;20085;50.832;4.392;2022-11-20T06:34:29;7.90;99.90
33574;DHT22;20085;50.832;4.392;2022-11-20T06:36:54;7.80;99.90
33574;DHT22;20085;50.832;4.392;2022-11-20T06:39:20;7.80;99.90
33574;DHT22;20085;50.832;4.392;2022-11-20T06:41:45;7.80;99.90
33574;DHT22;20085;50.832;4.392;2022-11-20T06:44:11;7.80;99.90
33574;DHT22;20085;50.832;4.392;2022-11-20T06:46:36;7.80;99.90
33574;DHT22;20085;50.832;4.392;2022-11-20T06:49:02;7.80;99.90
33574;DHT22;20085;50.832;4.392;2022-11-20T06:51:27;7.90;99.90
33574;DHT22;20085;50.832;4.392;2022-11-20T06:53:53;7.90;99.90
33574;DHT22;20085;50.832;4.392;2022-11-20T06:56:18;8.00;99.90
33574;DHT22;20085;50.832;4.392;2022-11-20T06:58:44;8.00;99.90
33574;DHT22;20085;50.832;4.392;2022-11-20T07:01:11;8.00;99.90
33574;DHT22;20085;50.832;4.392;2022-11-20T07:03:36;8.00;99.90
33574;DHT22;20085;50.832;4.392;2022-11-20T07:06:02;8.00;99.90
33574;DHT22;20085;50.832;4.392;2022-11-20T07:08:28;7.90;99.90
33574;DHT22;20085;50.832;4.392;2022-11-20T07:10:56;7.90;99.90
33574;DHT22;20085;50.832;4.392;2022-11-20T07:13:22;7.90;99.90
33574;DHT22;20085;50.832;4.392;2022-11-20T07:15:47;8.00;99.90
33574;DHT22;20085;50.832;4.392;2022-11-20T07:18:13;8.00;99.90
33574;DHT22;20085;50.832;4.392;2022-11-20T07:20:38;8.00;99.90
33574;DHT22;20085;50.832;4.392;2022-11-20T07:23:04;8.00;99.90
33574;DHT22;20085;50.832;4.392;2022-11-20T07:25:29;8.00;99.90
33574;DHT22;20085;50.832;4.392;2022-11-20T07:27:59;8.00;99.90
33574;DHT22;20085;50.832;4.392;2022-11-20T07:30:25;8.00;99.90
33574;DHT22;20085;50.832;4.392;2022-11-20T07:32:51;8.10;99.90
33574;DHT22;20085;50.832;4.392;2022-11-20T07:35:16;8.10;99.90
33574;DHT22;20085;50.832;4.392;2022-11-20T07:37:42;8.10;99.90
33574;DHT22;20085;50.832;4.392;2022-11-20T07:40:08;8.10;99.90
33574;DHT22;20085;50.832;4.392;2022-11-20T07:42:33;8.20;99.90
33574;DHT22;20085;50.832;4.392;2022-11-20T07:44:59;8.20;99.90
33574;DHT22;20085;50.832;4.392;2022-11-20T07:47:24;8.30;99.90
33574;DHT22;20085;50.832;4.392;2022-11-20T07:49:50;8.20;99.90
33574;DHT22;20085;50.832;4.392;2022-11-20T07:52:15;8.20;99.90
33574;DHT22;20085;50.832;4.392;2022-11-20T07:54:41;8.30;99.90
33574;DHT22;20085;50.832;4.392;2022-11-20T07:57:06;8.30;99.90
33574;DHT22;20085;50.832;4.392;2022-11-20T07:59:32;8.30;99.90
33574;DHT22;20085;50.832;4.392;2022-11-20T08:01:57;8.20;99.90
33574;DHT22;20085;50.832;4.392;2022-11-20T08:04:23;8.20;99.90
33574;DHT22;20085;50.832;4.392;2022-11-20T08:06:48;8.30;99.90
33574;DHT22;20085;50.832;4.392;2022-11-20T08:09:14;8.30;99.90
33574;DHT22;20085;50.832;4.392;2022-11-20T08:11:39;8.30;99.90
33574;DHT22;20085;50.832;4.392;2022-11-20T08:14:24;8.30;99.90
33574;DHT22;20085;50.832;4.392;2022-11-20T08:16:49;8.30;99.90
33574;DHT22;20085;50.832;4.392;2022-11-20T08:19:15;8.30;99.90
33574;DHT22;20085;50.832;4.392;2022-11-20T08:21:41;8.20;99.90
33574;DHT22;20085;50.832;4.392;2022-11-20T08:24:10;8.30;99.90
33574;DHT22;20085;50.832;4.392;2022-11-20T08:26:36;8.30;99.90
33574;DHT22;20085;50.832;4.392;2022-11-20T08:29:02;8.30;99.90
33574;DHT22;20085;50.832;4.392;2022-11-20T08:31:28;8.30;99.90
33574;DHT22;20085;50.832;4.392;2022-11-20T08:33:53;8.40;99.90
33574;DHT22;20085;50.832;4.392;2022-11-20T08:36:20;8.50;99.90
33574;DHT22;20085;50.832;4.392;2022-11-20T08:38:51;8.50;99.90
33574;DHT22;20085;50.832;4.392;2022-11-20T08:41:17;8.60;99.90
33574;DHT22;20085;50.832;4.392;2022-11-20T08:43:49;8.50;99.90
33574;DHT22;20085;50.832;4.392;2022-11-20T08:46:15;8.50;99.90
33574;DHT22;20085;50.832;4.392;2022-11-20T08:48:41;8.60;99.90
33574;DHT22;20085;50.832;4.392;2022-11-20T08:51:06;8.60;99.90
33574;DHT22;20085;50.832;4.392;2022-11-20T08:53:32;8.60;99.90
33574;DHT22;20085;50.832;4.392;2022-11-20T08:55:57;8.70;99.90
33574;DHT22;20085;50.832;4.392;2022-11-20T08:58:23;8.70;99.90
33574;DHT22;20085;50.832;4.392;2022-11-20T09:00:49;8.70;99.90
33574;DHT22;20085;50.832;4.392;2022-11-20T09:03:14;8.70;99.90
33574;DHT22;20085;50.832;4.392;2022-11-20T09:05:40;8.80;99.90
33574;DHT22;20085;50.832;4.392;2022-11-20T09:08:05;8.70;99.90
33574;DHT22;20085;50.832;4.392;2022-11-20T09:10:30;8.80;99.90
33574;DHT22;20085;50.832;4.392;2022-11-20T09:12:57;8.80;99.90
33574;DHT22;20085;50.832;4.392;2022-11-20T09:15:23;8.80;99.90
33574;DHT22;20085;50.832;4.392;2022-11-20T09:17:52;8.90;99.90
33574;DHT22;20085;50.832;4.392;2022-11-20T09:20:18;8.90;99.90
33574;DHT22;20085;50.832;4.392;2022-11-20T09:22:44;9.00;99.90
33574;DHT22;20085;50.832;4.392;2022-11-20T09:25:10;9.00;99.90
33574;DHT22;20085;50.832;4.392;2022-11-20T09:27:35;9.00;99.90
33574;DHT22;20085;50.832;4.392;2022-11-20T09:30:01;9.00;99.90
33574;DHT22;20085;50.832;4.392;2022-11-20T09:32:26;9.10;99.90
33574;DHT22;20085;50.832;4.392;2022-11-20T09:34:52;9.10;99.90
33574;DHT22;20085;50.832;4.392;2022-11-20T09:37:17;9.10;99.90
33574;DHT22;20085;50.832;4.392;2022-11-20T09:39:43;9.10;99.90
33574;DHT22;20085;50.832;4.392;2022-11-20T09:42:30;9.20;99.90
33574;DHT22;20085;50.832;4.392;2022-11-20T09:47:43;9.30;99.90
33574;DHT22;20085;50.832;4.392;2022-11-20T09:50:25;9.30;99.90
33574;DHT22;20085;50.832;4.392;2022-11-20T09:55:30;9.40;99.90
33574;DHT22;20085;50.832;4.392;2022-11-20T09:57:56;9.40;99.90
33574;DHT22;20085;50.832;4.392;2022-11-20T10:00:23;9.40;99.90
33574;DHT22;20085;50.832;4.392;2022-11-20T10:02:52;9.40;99.90
33574;DHT22;20085;50.832;4.392;2022-11-20T10:05:26;9.40;99.90
33574;DHT22;20085;50.832;4.392;2022-11-20T10:07:54;9.50;99.90
33574;DHT22;20085;50.832;4.392;2022-11-20T10:10:44;9.50;99.90
33574;DHT22;20085;50.832;4.392;2022-11-20T10:18:09;9.60;99.90
33574;DHT22;20085;50.832;4.392;2022-11-20T10:23:24;9.60;99.90
33574;DHT22;20085;50.832;4.392;2022-11-20T10:26:57;9.70;99.90
33574;DHT22;20085;50.832;4.392;2022-11-20T10:31:34;9.70;99.90
33574;DHT22;20085;50.832;4.392;2022-11-20T10:34:04;9.80;99.90
33574;DHT22;20085;50.832;4.392;2022-11-20T10:36:34;9.90;99.90
33574;DHT22;20085;50.832;4.392;2022-11-20T10:39:06;9.90;99.90
33574;DHT22;20085;50.832;4.392;2022-11-20T10:41:34;9.90;99.90
33574;DHT22;20085;50.832;4.392;2022-11-20T10:44:09;9.90;99.90
33574;DHT22;20085;50.832;4.392;2022-11-20T10:46:54;10.00;99.90
33574;DHT22;20085;50.832;4.392;2022-11-20T10:49:20;10.00;99.90
33574;DHT22;20085;50.832;4.392;2022-11-20T10:54:32;10.00;99.90
33574;DHT22;20085;50.832;4.392;2022-11-20T10:57:03;10.00;99.90
33574;DHT22;20085;50.832;4.392;2022-11-20T11:02:19;10.00;99.90
33574;DHT22;20085;50.832;4.392;2022-11-20T11:04:53;10.00;99.90
33574;DHT22;20085;50.832;4.392;2022-11-20T11:07:24;10.10;99.90
33574;DHT22;20085;50.832;4.392;2022-11-20T11:09:53;10.10;99.90
33574;DHT22;20085;50.832;4.392;2022-11-20T11:12:19;10.20;99.90
33574;DHT22;20085;50.832;4.392;2022-11-20T11:14:49;10.20;99.90
33574;DHT22;20085;50.832;4.392;2022-11-20T11:17:18;10.20;99.90
33574;DHT22;20085;50.832;4.392;2022-11-20T11:19:45;10.20;99.90
33574;DHT22;20085;50.832;4.392;2022-11-20T11:22:16;10.20;99.90
33574;DHT22;20085;50.832;4.392;2022-11-20T11:24:43;10.30;99.90
33574;DHT22;20085;50.832;4.392;2022-11-20T11:27:16;10.20;99.90
33574;DHT22;20085;50.832;4.392;2022-11-20T11:29:42;10.30;99.90
33574;DHT22;20085;50.832;4.392;2022-11-20T11:34:34;10.30;99.90
33574;DHT22;20085;50.832;4.392;2022-11-20T11:37:00;10.30;99.90
33574;DHT22;20085;50.832;4.392;2022-11-20T11:39:26;10.30;99.90
33574;DHT22;20085;50.832;4.392;2022-11-20T11:41:52;10.30;99.90
33574;DHT22;20085;50.832;4.392;2022-11-20T11:44:28;10.30;99.90
33574;DHT22;20085;50.832;4.392;2022-11-20T11:47:23;10.30;99.90
33574;DHT22;20085;50.832;4.392;2022-11-20T11:49:49;10.30;99.90
33574;DHT22;20085;50.832;4.392;2022-11-20T11:52:25;10.30;99.90
33574;DHT22;20085;50.832;4.392;2022-11-20T11:54:53;10.30;99.90
33574;DHT22;20085;50.832;4.392;2022-11-20T12:00:20;10.30;99.90
33574;DHT22;20085;50.832;4.392;2022-11-20T12:05:20;10.30;99.90
33574;DHT22;20085;50.832;4.392;2022-11-20T12:10:23;10.30;99.90
33574;DHT22;20085;50.832;4.392;2022-11-20T12:12:55;10.30;99.90
33574;DHT22;20085;50.832;4.392;2022-11-20T12:15:28;10.20;99.90
33574;DHT22;20085;50.832;4.392;2022-11-20T12:17:54;10.20;99.90
33574;DHT22;20085;50.832;4.392;2022-11-20T12:20:19;10.20;99.90
33574;DHT22;20085;50.832;4.392;2022-11-20T12:22:49;10.20;99.90
33574;DHT22;20085;50.832;4.392;2022-11-20T12:25:20;10.20;99.90
33574;DHT22;20085;50.832;4.392;2022-11-20T12:30:14;10.10;99.90
33574;DHT22;20085;50.832;4.392;2022-11-20T12:37:59;10.10;99.90
33574;DHT22;20085;50.832;4.392;2022-11-20T12:40:38;10.10;99.90
33574;DHT22;20085;50.832;4.392;2022-11-20T12:53:55;10.10;99.90
33574;DHT22;20085;50.832;4.392;2022-11-20T13:01:48;10.10;99.90
33574;DHT22;20085;50.832;4.392;2022-11-20T13:04:28;10.10;99.90
33574;DHT22;20085;50.832;4.392;2022-11-20T13:07:02;10.20;99.90
33574;DHT22;20085;50.832;4.392;2022-11-20T13:09:29;10.10;99.90
33574;DHT22;20085;50.832;4.392;2022-11-20T13:12:04;10.10;99.90
33574;DHT22;20085;50.832;4.392;2022-11-20T13:14:37;10.10;99.90
33574;DHT22;20085;50.832;4.392;2022-11-20T13:19:33;10.10;99.90
33574;DHT22;20085;50.832;4.392;2022-11-20T13:22:01;10.10;99.90
33574;DHT22;20085;50.832;4.392;2022-11-20T13:24:30;10.10;99.90
33574;DHT22;20085;50.832;4.392;2022-11-20T13:29:31;10.00;99.90
33574;DHT22;20085;50.832;4.392;2022-11-20T13:32:06;10.10;99.90
33574;DHT22;20085;50.832;4.392;2022-11-20T13:34:38;10.00;99.90
33574;DHT22;20085;50.832;4.392;2022-11-20T13:37:04;10.00;99.90
33574;DHT22;20085;50.832;4.392;2022-11-20T13:39:31;10.00;99.90
33574;DHT22;20085;50.832;4.392;2022-11-20T13:42:01;10.00;99.90
33574;DHT22;20085;50.832;4.392;2022-11-20T13:44:37;10.00;99.90
33574;DHT22;20085;50.832;4.392;2022-11-20T13:47:03;10.00;99.90
33574;DHT22;20085;50.832;4.392;2022-11-20T13:49:30;9.90;99.90
33574;DHT22;20085;50.832;4.392;2022-11-20T14:02:20;10.00;99.90
33574;DHT22;20085;50.832;4.392;2022-11-20T14:04:47;10.10;99.90
33574;DHT22;20085;50.832;4.392;2022-11-20T14:07:13;10.10;99.90
33574;DHT22;20085;50.832;4.392;2022-11-20T14:09:50;10.10;99.90
33574;DHT22;20085;50.832;4.392;2022-11-20T14:12:18;10.00;99.90
33574;DHT22;20085;50.832;4.392;2022-11-20T14:14:48;10.00;99.90
33574;DHT22;20085;50.832;4.392;2022-11-20T14:17:19;10.00;99.90
33574;DHT22;20085;50.832;4.392;2022-11-20T14:19:45;10.10;99.90
33574;DHT22;20085;50.832;4.392;2022-11-20T14:22:19;10.00;99.90
33574;DHT22;20085;50.832;4.392;2022-11-20T14:25:18;10.00;99.90
33574;DHT22;20085;50.832;4.392;2022-11-20T14:27:50;10.00;99.90
33574;DHT22;20085;50.832;4.392;2022-11-20T14:30:18;10.00;99.90
33574;DHT22;20085;50.832;4.392;2022-11-20T14:32:46;10.00;99.90
33574;DHT22;20085;50.832;4.392;2022-11-20T14:35:18;10.00;99.90
33574;DHT22;20085;50.832;4.392;2022-11-20T14:37:44;10.00;99.90
33574;DHT22;20085;50.832;4.392;2022-11-20T14:40:23;10.00;99.90
33574;DHT22;20085;50.832;4.392;2022-11-20T14:42:49;10.10;99.90
33574;DHT22;20085;50.832;4.392;2022-11-20T14:45:15;10.10;99.90
33574;DHT22;20085;50.832;4.392;2022-11-20T14:47:52;10.00;99.90
33574;DHT22;20085;50.832;4.392;2022-11-20T14:50:23;10.00;99.90
33574;DHT22;20085;50.832;4.392;2022-11-20T14:53:12;10.00;99.90
33574;DHT22;20085;50.832;4.392;2022-11-20T14:55:59;10.00;99.90
33574;DHT22;20085;50.832;4.392;2022-11-20T14:59:02;10.00;99.90
33574;DHT22;20085;50.832;4.392;2022-11-20T15:01:29;10.00;99.90
33574;DHT22;20085;50.832;4.392;2022-11-20T15:06:27;9.90;99.90
33574;DHT22;20085;50.832;4.392;2022-11-20T15:08:53;9.90;99.90
33574;DHT22;20085;50.832;4.392;2022-11-20T15:11:38;10.00;99.90
33574;DHT22;20085;50.832;4.392;2022-11-20T15:14:05;10.00;99.90
33574;DHT22;20085;50.832;4.392;2022-11-20T15:16:33;10.00;99.90
33574;DHT22;20085;50.832;4.392;2022-11-20T15:18:58;10.10;99.90
33574;DHT22;20085;50.832;4.392;2022-11-20T15:21:32;10.10;99.90
33574;DHT22;20085;50.832;4.392;2022-11-20T15:24:00;10.20;99.90
33574;DHT22;20085;50.832;4.392;2022-11-20T15:26:26;10.20;99.90
33574;DHT22;20085;50.832;4.392;2022-11-20T15:28:54;10.20;99.90
33574;DHT22;20085;50.832;4.392;2022-11-20T15:31:22;10.20;99.90
33574;DHT22;20085;50.832;4.392;2022-11-20T15:33:48;10.20;99.90
33574;DHT22;20085;50.832;4.392;2022-11-20T15:36:15;10.20;99.90
33574;DHT22;20085;50.832;4.392;2022-11-20T15:38:40;10.20;99.90
33574;DHT22;20085;50.832;4.392;2022-11-20T15:41:21;10.20;99.90
33574;DHT22;20085;50.832;4.392;2022-11-20T15:43:47;10.10;99.90
33574;DHT22;20085;50.832;4.392;2022-11-20T15:46:13;10.10;99.90
33574;DHT22;20085;50.832;4.392;2022-11-20T15:48:40;10.10;99.90
33574;DHT22;20085;50.832;4.392;2022-11-20T15:51:12;10.10;99.90
33574;DHT22;20085;50.832;4.392;2022-11-20T15:53:43;10.10;99.90
33574;DHT22;20085;50.832;4.392;2022-11-20T15:56:24;10.10;99.90
33574;DHT22;20085;50.832;4.392;2022-11-20T15:58:52;10.20;99.90
33574;DHT22;20085;50.832;4.392;2022-11-20T16:01:19;10.20;99.90
33574;DHT22;20085;50.832;4.392;2022-11-20T16:03:45;10.20;99.90
33574;DHT22;20085;50.832;4.392;2022-11-20T16:06:18;10.20;99.90
33574;DHT22;20085;50.832;4.392;2022-11-20T16:08:44;10.20;99.90
33574;DHT22;20085;50.832;4.392;2022-11-20T16:11:10;10.10;99.90
33574;DHT22;20085;50.832;4.392;2022-11-20T16:13:41;10.20;99.90
33574;DHT22;20085;50.832;4.392;2022-11-20T16:16:29;10.20;99.90
33574;DHT22;20085;50.832;4.392;2022-11-20T16:18:57;10.20;99.90
33574;DHT22;20085;50.832;4.392;2022-11-20T16:21:23;10.20;99.90
33574;DHT22;20085;50.832;4.392;2022-11-20T16:24:01;10.20;99.90
33574;DHT22;20085;50.832;4.392;2022-11-20T16:26:30;10.10;99.90
33574;DHT22;20085;50.832;4.392;2022-11-20T16:29:07;10.20;99.90
33574;DHT22;20085;50.832;4.392;2022-11-20T16:31:32;10.20;99.90
33574;DHT22;20085;50.832;4.392;2022-11-20T16:33:59;10.20;99.90
33574;DHT22;20085;50.832;4.392;2022-11-20T16:36:27;10.20;99.90
33574;DHT22;20085;50.832;4.392;2022-11-20T16:38:54;10.20;99.90
33574;DHT22;20085;50.832;4.392;2022-11-20T16:41:28;10.20;99.90
33574;DHT22;20085;50.832;4.392;2022-11-20T16:43:56;10.20;99.90
33574;DHT22;20085;50.832;4.392;2022-11-20T16:46:30;10.30;99.90
33574;DHT22;20085;50.832;4.392;2022-11-20T16:48:59;10.30;99.90
33574;DHT22;20085;50.832;4.392;2022-11-20T16:51:25;10.40;99.90
33574;DHT22;20085;50.832;4.392;2022-11-20T16:53:52;10.40;99.90
33574;DHT22;20085;50.832;4.392;2022-11-20T16:56:20;10.30;99.90
33574;DHT22;20085;50.832;4.392;2022-11-20T16:58:47;10.40;99.90
33574;DHT22;20085;50.832;4.392;2022-11-20T17:01:14;10.40;99.90
33574;DHT22;20085;50.832;4.392;2022-11-20T17:03:41;10.40;99.90
33574;DHT22;20085;50.832;4.392;2022-11-20T17:06:17;10.40;99.90